Time;durP1;ratioP1;P1;durP2;ratioP2;P2;SDS_P1;SDS_P2;PMS_P1;PMS_P2;Temp;Humidity;BMP_temperature;BMP_pressure;BME280_temperature;BME280_humidity;BME280_pressure;Samples;Min_cycle;Max_cycle;Signal;HPM_P1;HPM_P2
2022/06/06 00:00:24;;;;;;;;;;;;;;;15.51;70.34;99061.44;6251457;22;19919;-75
2022/06/06 00:02:49;;;;;;;;;;;;;;;15.49;70.50;99056.19;6276341;22;20049;-76
2022/06/06 00:05:15;;;;;;;;;;;;;;;15.54;70.24;99040.41;6251008;22;19919;-76
2022/06/06 00:07:41;;;;;;;;;;;;;;;15.54;70.29;99036.88;6278133;22;20357;-75
2022/06/06 00:10:08;;;;;;;;;;;;;;;15.52;70.12;99036.19;6250748;22;19919;-75
2022/06/06 00:12:35;;;;;;;;;;;;;;;15.61;70.20;99028.97;6225504;22;19965;-75
2022/06/06 00:15:01;;;;;;;;;;;;;;;15.67;69.57;99034.59;6250711;22;19920;-76
2022/06/06 00:17:28;;;;;;;;;;;;;;;15.66;69.75;99035.63;6226139;22;19919;-75
2022/06/06 00:19:54;;;;;;;;;;;;;;;15.67;69.71;99026.50;6250667;22;19919;-75
2022/06/06 00:22:20;;;;;;;;;;;;;;;15.69;69.61;99021.81;6225498;22;19919;-74
2022/06/06 00:24:45;;;;;;;;;;;;;;;15.71;69.86;99022.47;6225560;22;19954;-76
2022/06/06 00:27:11;;;;;;;;;;;;;;;15.76;69.72;99022.00;6250761;22;19969;-76
2022/06/06 00:29:37;;;;;;;;;;;;;;;15.78;69.56;99026.22;6250986;22;19919;-75
2022/06/06 00:34:54;;;;;;;;;;;;;;;15.81;69.53;99019.66;6276584;22;20382;-73
2022/06/06 00:37:22;;;;;;;;;;;;;;;15.88;69.39;99019.84;6251230;22;19923;-74
2022/06/06 00:39:48;;;;;;;;;;;;;;;15.96;69.15;99017.19;6250719;22;19919;-74
2022/06/06 00:42:22;;;;;;;;;;;;;;;15.97;69.05;99019.69;6277800;22;19919;-75
2022/06/06 00:44:48;;;;;;;;;;;;;;;16.02;68.88;99013.78;6276298;22;19919;-75
2022/06/06 00:47:24;;;;;;;;;;;;;;;16.06;68.65;99012.50;6250583;22;19970;-74
2022/06/06 00:49:49;;;;;;;;;;;;;;;16.12;68.70;99006.41;6276036;22;19923;-75
2022/06/06 00:52:22;;;;;;;;;;;;;;;16.18;68.64;99016.53;6250732;22;19919;-75
2022/06/06 00:54:49;;;;;;;;;;;;;;;16.20;68.62;99003.72;6276133;22;19919;-75
2022/06/06 00:57:18;;;;;;;;;;;;;;;16.27;68.48;99003.91;6250668;22;19942;-76
2022/06/06 00:59:45;;;;;;;;;;;;;;;16.30;68.22;99003.56;6275847;22;19919;-75
2022/06/06 01:02:12;;;;;;;;;;;;;;;16.30;68.11;99005.44;6276216;22;20277;-76
2022/06/06 01:04:39;;;;;;;;;;;;;;;16.39;67.72;99012.50;6250773;22;19922;-76
2022/06/06 01:07:05;;;;;;;;;;;;;;;16.54;67.68;99007.28;6250545;22;19926;-75
2022/06/06 01:09:31;;;;;;;;;;;;;;;16.54;67.52;99007.28;6275861;22;20255;-77
2022/06/06 01:12:01;;;;;;;;;;;;;;;16.58;67.22;99012.16;6276049;22;19919;-75
2022/06/06 01:14:29;;;;;;;;;;;;;;;16.68;67.26;99006.59;6276054;22;19919;-75
2022/06/06 01:17:04;;;;;;;;;;;;;;;16.69;66.84;99008.28;6275888;22;19926;-75
2022/06/06 01:19:36;;;;;;;;;;;;;;;16.76;66.38;99001.22;6276040;22;19930;-75
2022/06/06 01:22:20;;;;;;;;;;;;;;;16.74;66.15;98998.72;6275570;22;19919;-75
2022/06/06 01:24:56;;;;;;;;;;;;;;;16.77;66.19;99002.91;6276270;22;20306;-74
2022/06/06 01:27:47;;;;;;;;;;;;;;;16.75;66.17;99013.88;6301794;22;19919;-75
2022/06/06 01:30:19;;;;;;;;;;;;;;;16.80;65.98;99009.81;6301564;22;19973;-77
2022/06/06 01:32:48;;;;;;;;;;;;;;;16.84;66.07;99011.16;6288549;22;19924;-76
2022/06/06 01:35:22;;;;;;;;;;;;;;;16.88;65.89;99015.19;6277141;22;20351;-75
2022/06/06 01:37:48;;;;;;;;;;;;;;;16.90;65.68;99011.31;6250141;22;19919;-76
2022/06/06 01:40:15;;;;;;;;;;;;;;;16.84;65.78;99016.56;6199963;22;19926;-74
2022/06/06 01:42:44;;;;;;;;;;;;;;;16.86;65.82;99025.34;6199552;22;19969;-74
2022/06/06 01:45:17;;;;;;;;;;;;;;;16.83;65.59;99025.69;6224877;22;19984;-75
2022/06/06 01:47:46;;;;;;;;;;;;;;;16.78;65.91;99014.56;6250079;22;19926;-75
2022/06/06 01:50:12;;;;;;;;;;;;;;;16.91;65.92;99006.78;6225124;22;20335;-75
2022/06/06 01:52:59;;;;;;;;;;;;;;;16.90;65.63;99000.53;6224555;22;19926;-75
2022/06/06 01:55:26;;;;;;;;;;;;;;;17.02;65.48;98990.22;6224302;22;19964;-76
2022/06/06 01:57:53;;;;;;;;;;;;;;;17.14;64.95;98988.81;6224658;22;19926;-75
2022/06/06 02:00:19;;;;;;;;;;;;;;;17.15;64.88;98985.13;6250048;22;20001;-75
2022/06/06 02:02:45;;;;;;;;;;;;;;;17.20;65.07;98984.59;6225222;22;19919;-75
2022/06/06 02:05:12;;;;;;;;;;;;;;;17.33;64.41;98973.22;6199929;22;19919;-75
2022/06/06 02:07:38;;;;;;;;;;;;;;;17.46;64.15;98978.94;6249783;22;19919;-75
2022/06/06 02:10:05;;;;;;;;;;;;;;;17.51;63.91;98972.97;6249729;22;19973;-75
2022/06/06 02:12:31;;;;;;;;;;;;;;;17.58;63.95;98968.56;6250153;22;20262;-75
2022/06/06 02:14:57;;;;;;;;;;;;;;;17.73;63.60;98975.72;6249149;22;19919;-76
2022/06/06 02:17:22;;;;;;;;;;;;;;;17.84;63.14;98965.56;6249552;22;19930;-77
2022/06/06 02:19:48;;;;;;;;;;;;;;;17.94;62.46;98966.16;6199425;22;19923;-75
2022/06/06 02:22:14;;;;;;;;;;;;;;;17.89;62.59;98974.81;6223901;22;20441;-76
2022/06/06 02:24:40;;;;;;;;;;;;;;;17.93;62.45;98973.44;6249262;22;19923;-76
2022/06/06 02:27:06;;;;;;;;;;;;;;;18.02;62.53;98968.84;6249226;22;19919;-76
2022/06/06 02:29:32;;;;;;;;;;;;;;;17.88;62.61;98961.50;6277218;22;19919;-76
2022/06/06 02:31:58;;;;;;;;;;;;;;;17.66;63.14;98969.34;6249343;22;20003;-76
2022/06/06 02:34:24;;;;;;;;;;;;;;;17.61;63.45;98957.41;6224535;22;19919;-76
2022/06/06 02:36:50;;;;;;;;;;;;;;;17.58;63.38;98961.28;6249559;22;19973;-76
2022/06/06 02:39:16;;;;;;;;;;;;;;;17.64;63.18;98963.31;6249422;22;20297;-77
2022/06/06 02:41:42;;;;;;;;;;;;;;;17.83;63.07;98956.63;6222444;22;19919;-76
2022/06/06 02:44:09;;;;;;;;;;;;;;;17.77;62.77;98959.19;6275033;22;20354;-76
2022/06/06 02:46:35;;;;;;;;;;;;;;;17.86;62.67;98950.00;6222602;22;20459;-76
2022/06/06 02:49:01;;;;;;;;;;;;;;;17.87;62.43;98944.44;6273457;22;19947;-76
2022/06/06 02:51:26;;;;;;;;;;;;;;;17.92;62.57;98944.72;6273525;22;19919;-76
2022/06/06 02:53:52;;;;;;;;;;;;;;;18.00;62.28;98943.00;6222558;22;19923;-75
2022/06/06 02:56:18;;;;;;;;;;;;;;;18.02;62.38;98946.38;6222797;22;19926;-76
2022/06/06 02:58:43;;;;;;;;;;;;;;;18.22;62.50;98950.25;6247733;22;19919;-76
2022/06/06 03:01:10;;;;;;;;;;;;;;;18.39;62.18;98945.53;6273386;22;19951;-76
2022/06/06 03:03:36;;;;;;;;;;;;;;;18.59;61.77;98938.59;6247835;22;19919;-76
2022/06/06 03:06:02;;;;;;;;;;;;;;;18.74;61.09;98937.81;6248248;22;19919;-74
2022/06/06 03:08:31;;;;;;;;;;;;;;;19.04;60.52;98950.34;6224664;22;19923;-76
2022/06/06 03:11:16;;;;;;;;;;;;;;;19.09;59.66;98945.19;6249941;22;19950;-76
2022/06/06 03:13:45;;;;;;;;;;;;;;;19.16;59.43;98946.13;6250175;22;19925;-76
2022/06/06 03:22:18;;;;;;;;;;;;;;;18.72;59.77;98948.81;6224623;22;20009;-77
2022/06/06 03:25:03;;;;;;;;;;;;;;;18.52;60.02;98953.88;6224716;22;20045;-76
2022/06/06 03:27:37;;;;;;;;;;;;;;;18.49;60.26;98950.72;6250194;22;19923;-76
2022/06/06 03:30:26;;;;;;;;;;;;;;;18.01;60.96;98953.63;6250195;22;20001;-76
2022/06/06 03:32:57;;;;;;;;;;;;;;;18.07;61.33;98954.78;6195845;22;19930;-77
2022/06/06 03:35:26;;;;;;;;;;;;;;;18.14;61.42;98956.56;6275009;22;19959;-78
2022/06/06 03:38:05;;;;;;;;;;;;;;;18.29;60.96;98953.09;6224065;22;19968;-76
2022/06/06 03:40:31;;;;;;;;;;;;;;;18.37;60.97;98950.31;6224753;22;20313;-77
2022/06/06 03:43:06;;;;;;;;;;;;;;;18.62;60.89;98942.81;6225187;22;19942;-76
2022/06/06 03:45:32;;;;;;;;;;;;;;;18.95;60.81;98942.50;6226189;22;19926;-76
2022/06/06 03:48:04;;;;;;;;;;;;;;;19.44;59.60;98937.31;6276342;22;19954;-76
2022/06/06 03:50:45;;;;;;;;;;;;;;;19.87;58.12;98932.84;6226277;22;19919;-77
2022/06/06 03:53:47;;;;;;;;;;;;;;;20.11;57.21;98923.47;6226450;22;19919;-78
2022/06/06 03:56:34;;;;;;;;;;;;;;;20.35;56.48;98918.72;6189778;23;19931;-76
2022/06/06 03:59:00;;;;;;;;;;;;;;;20.56;56.04;98917.84;6222305;22;19927;-78
2022/06/06 04:01:27;;;;;;;;;;;;;;;20.80;55.52;98911.13;6251118;22;19919;-76
2022/06/06 04:03:53;;;;;;;;;;;;;;;21.03;55.23;98911.69;6276790;22;19923;-77
2022/06/06 04:06:19;;;;;;;;;;;;;;;20.92;55.10;98908.69;6251279;22;19919;-78
2022/06/06 04:08:46;;;;;;;;;;;;;;;21.05;55.06;98893.28;6250731;22;19926;-77
2022/06/06 04:11:22;;;;;;;;;;;;;;;21.23;55.33;98894.63;6226596;22;19919;-79
2022/06/06 04:13:59;;;;;;;;;;;;;;;21.14;54.69;98882.25;6225211;22;19919;-77
2022/06/06 04:16:43;;;;;;;;;;;;;;;21.28;54.03;98883.97;6250814;22;20259;-77
2022/06/06 04:19:09;;;;;;;;;;;;;;;21.22;52.96;98876.66;6276126;22;19992;-77
2022/06/06 04:21:35;;;;;;;;;;;;;;;21.45;53.25;98874.47;6276448;22;19923;-79
2022/06/06 04:24:19;;;;;;;;;;;;;;;21.54;53.39;98872.41;6226119;22;20331;-79
2022/06/06 04:26:45;;;;;;;;;;;;;;;21.82;52.68;98862.22;6276312;22;19919;-79
2022/06/06 04:29:13;;;;;;;;;;;;;;;21.86;52.52;98861.81;6277497;22;19919;-77
2022/06/06 04:31:42;;;;;;;;;;;;;;;22.02;52.56;98866.84;6249515;22;20561;-78
2022/06/06 04:34:10;;;;;;;;;;;;;;;22.11;52.77;98859.31;6225269;22;19981;-78
2022/06/06 04:36:36;;;;;;;;;;;;;;;22.40;52.23;98858.91;6225189;22;19946;-79
2022/06/06 04:39:13;;;;;;;;;;;;;;;22.40;50.88;98853.47;6250306;22;20255;-79
2022/06/06 04:41:57;;;;;;;;;;;;;;;22.48;50.74;98855.13;6200591;22;19919;-77
2022/06/06 04:44:32;;;;;;;;;;;;;;;22.59;51.10;98845.50;6277779;22;19954;-79
2022/06/06 04:47:02;;;;;;;;;;;;;;;22.68;51.16;98860.53;6250007;22;19919;-78
2022/06/06 04:49:28;;;;;;;;;;;;;;;22.90;51.03;98847.50;6200034;22;20299;-78
2022/06/06 04:51:56;;;;;;;;;;;;;;;23.05;50.48;98844.53;6200553;22;19965;-77
2022/06/06 04:54:22;;;;;;;;;;;;;;;23.06;50.37;98852.53;6199938;22;20347;-79
2022/06/06 04:56:50;;;;;;;;;;;;;;;23.16;50.52;98847.44;6281738;22;19919;-78
2022/06/06 04:59:16;;;;;;;;;;;;;;;23.26;50.31;98838.81;6252227;22;19954;-77
2022/06/06 05:01:41;;;;;;;;;;;;;;;23.47;50.47;98838.50;6199971;22;19919;-79
2022/06/06 05:04:08;;;;;;;;;;;;;;;23.73;49.90;98834.81;6225016;22;19942;-78
2022/06/06 05:06:50;;;;;;;;;;;;;;;23.77;49.28;98835.19;6225183;22;20294;-79
2022/06/06 05:09:25;;;;;;;;;;;;;;;23.01;50.73;98850.41;6250228;22;20068;-79
2022/06/06 05:11:54;;;;;;;;;;;;;;;23.52;50.71;98841.38;6225129;22;19926;-78
2022/06/06 05:14:28;;;;;;;;;;;;;;;23.81;49.89;98833.69;6276035;22;19969;-80
2022/06/06 05:17:12;;;;;;;;;;;;;;;24.10;48.72;98828.63;6199276;22;19920;-79
2022/06/06 05:19:47;;;;;;;;;;;;;;;24.13;48.46;98833.66;6229471;22;19925;-79
2022/06/06 05:22:13;;;;;;;;;;;;;;;24.29;48.88;98827.63;6227176;22;19926;-80
2022/06/06 05:24:51;;;;;;;;;;;;;;;24.36;48.35;98830.31;6253381;22;19924;-77
2022/06/06 05:27:32;;;;;;;;;;;;;;;24.38;48.39;98828.19;6254796;22;19919;-78
2022/06/06 05:30:01;;;;;;;;;;;;;;;24.33;47.91;98823.38;6234838;22;19919;-79
2022/06/06 05:32:49;;;;;;;;;;;;;;;23.99;48.90;98820.09;6267861;22;19923;-77
2022/06/06 05:35:24;;;;;;;;;;;;;;;24.16;49.09;98816.81;6232520;22;19973;-79
2022/06/06 05:38:00;;;;;;;;;;;;;;;24.24;48.47;98817.38;6210514;22;19923;-78
2022/06/06 05:40:35;;;;;;;;;;;;;;;24.33;48.06;98817.91;6206360;22;19920;-77
2022/06/06 05:43:20;;;;;;;;;;;;;;;24.24;48.06;98811.09;6230685;22;19926;-79
2022/06/06 05:45:56;;;;;;;;;;;;;;;24.14;47.89;98802.56;6204230;22;19919;-78
2022/06/06 05:48:40;;;;;;;;;;;;;;;23.95;48.39;98791.56;6281440;22;20356;-78
2022/06/06 05:51:16;;;;;;;;;;;;;;;24.07;48.10;98790.84;6235522;22;20002;-80
2022/06/06 05:53:42;;;;;;;;;;;;;;;24.07;48.17;98783.53;6207696;22;19919;-78
2022/06/06 05:56:26;;;;;;;;;;;;;;;24.19;47.90;98781.72;6282939;22;19999;-78
2022/06/06 05:59:07;;;;;;;;;;;;;;;24.34;47.39;98781.38;6202444;22;19923;-80
2022/06/06 06:01:48;;;;;;;;;;;;;;;24.40;47.27;98776.91;6224901;22;19942;-77
2022/06/06 06:04:30;;;;;;;;;;;;;;;24.55;47.33;98771.09;6199242;22;20405;-78
2022/06/06 06:07:18;;;;;;;;;;;;;;;24.52;47.44;98760.59;6199761;22;19919;-78
2022/06/06 06:09:52;;;;;;;;;;;;;;;24.37;47.57;98760.94;6276023;22;19919;-84
2022/06/06 06:12:18;;;;;;;;;;;;;;;24.51;47.53;98756.22;6224322;22;19954;-79
2022/06/06 06:14:47;;;;;;;;;;;;;;;24.59;47.33;98753.16;6199105;22;19919;-79
2022/06/06 06:17:16;;;;;;;;;;;;;;;24.61;47.24;98754.63;6248828;22;19919;-79
2022/06/06 06:20:02;;;;;;;;;;;;;;;24.78;47.59;98746.63;6224163;22;20001;-79
2022/06/06 06:22:34;;;;;;;;;;;;;;;24.91;46.53;98751.94;6276749;22;19919;-79
2022/06/06 06:25:01;;;;;;;;;;;;;;;25.08;46.81;98760.34;6224135;22;19923;-78
2022/06/06 06:27:31;;;;;;;;;;;;;;;25.18;46.34;98759.81;6274428;22;19919;-77
2022/06/06 06:29:57;;;;;;;;;;;;;;;24.98;46.84;98759.25;6275792;22;19919;-79
2022/06/06 06:32:41;;;;;;;;;;;;;;;24.94;46.74;98770.63;6274530;22;20310;-78
2022/06/06 06:35:18;;;;;;;;;;;;;;;24.51;46.17;98761.66;6224186;22;19920;-78
2022/06/06 06:37:47;;;;;;;;;;;;;;;24.30;47.25;98754.72;6249428;22;19919;-79
2022/06/06 06:40:20;;;;;;;;;;;;;;;23.91;48.26;98763.06;6248972;22;19919;-78
2022/06/06 06:43:04;;;;;;;;;;;;;;;24.58;48.03;98767.91;6249541;22;19925;-78
2022/06/06 06:45:33;;;;;;;;;;;;;;;25.05;46.35;98766.28;6249369;22;19930;-78
2022/06/06 06:48:05;;;;;;;;;;;;;;;25.35;45.99;98758.13;6249969;22;19951;-78
2022/06/06 06:50:34;;;;;;;;;;;;;;;25.73;45.68;98762.38;6224329;22;20232;-78
2022/06/06 06:53:03;;;;;;;;;;;;;;;25.72;45.03;98766.16;6249140;22;19931;-79
2022/06/06 06:55:35;;;;;;;;;;;;;;;25.06;45.78;98764.38;6274910;22;19927;-77
2022/06/06 06:58:08;;;;;;;;;;;;;;;24.46;46.89;98755.00;6224681;22;19969;-79
2022/06/06 07:00:54;;;;;;;;;;;;;;;25.02;46.84;98752.25;6224357;22;19927;-78
2022/06/06 07:09:22;;;;;;;;;;;;;;;26.29;43.73;98747.34;6225057;22;20396;-79
2022/06/06 07:11:57;;;;;;;;;;;;;;;26.30;43.75;98754.47;6200577;22;19970;-78
2022/06/06 07:14:32;;;;;;;;;;;;;;;26.12;43.70;98740.91;6279577;22;19973;-78
2022/06/06 07:16:58;;;;;;;;;;;;;;;26.15;43.81;98745.91;6278624;22;20006;-78
2022/06/06 07:19:30;;;;;;;;;;;;;;;26.39;44.07;98736.59;6251366;22;20357;-78
2022/06/06 07:21:56;;;;;;;;;;;;;;;26.65;42.58;98739.91;6226075;22;19926;-78
2022/06/06 07:24:23;;;;;;;;;;;;;;;26.33;42.88;98751.25;6249725;22;19997;-79
2022/06/06 07:26:49;;;;;;;;;;;;;;;25.93;42.73;98745.66;6249192;22;19965;-78
2022/06/06 07:29:17;;;;;;;;;;;;;;;25.51;43.72;98750.31;6224627;22;20310;-78
2022/06/06 07:31:52;;;;;;;;;;;;;;;25.63;44.16;98748.44;6249091;22;20330;-79
2022/06/06 07:34:41;;;;;;;;;;;;;;;26.13;42.50;98743.38;6274894;22;20009;-80
2022/06/06 07:37:16;;;;;;;;;;;;;;;26.13;42.16;98740.66;6223960;22;20228;-77
2022/06/06 07:39:44;;;;;;;;;;;;;;;26.43;41.65;98739.69;6199355;22;20251;-78
2022/06/06 07:42:42;;;;;;;;;;;;;;;26.73;40.66;98738.72;6249074;22;19919;-78
2022/06/06 07:45:27;;;;;;;;;;;;;;;27.24;41.27;98746.06;6198737;22;19942;-78
2022/06/06 07:48:01;;;;;;;;;;;;;;;27.50;39.38;98732.84;6223625;22;19930;-79
2022/06/06 07:50:34;;;;;;;;;;;;;;;26.39;40.23;98739.31;6223803;22;19919;-79
2022/06/06 07:53:03;;;;;;;;;;;;;;;25.55;42.22;98741.41;6198230;22;20014;-79
2022/06/06 07:55:31;;;;;;;;;;;;;;;26.08;42.55;98735.06;6276592;22;20425;-82
2022/06/06 07:58:12;;;;;;;;;;;;;;;26.63;41.42;98737.44;6200421;22;20323;-79
2022/06/06 08:00:38;;;;;;;;;;;;;;;26.13;40.71;98732.44;6250906;22;19946;-78
2022/06/06 08:03:14;;;;;;;;;;;;;;;25.65;42.18;98735.31;6225496;22;19919;-78
2022/06/06 08:05:39;;;;;;;;;;;;;;;25.73;41.64;98726.81;6200714;22;20002;-78
2022/06/06 08:08:08;;;;;;;;;;;;;;;25.66;41.57;98720.59;6250941;22;20331;-80
2022/06/06 08:10:46;;;;;;;;;;;;;;;25.33;42.14;98716.47;6225537;22;19926;-78
2022/06/06 08:13:27;;;;;;;;;;;;;;;25.43;42.38;98716.75;6224978;22;20406;-79
2022/06/06 08:16:07;;;;;;;;;;;;;;;25.54;41.01;98711.50;6276549;22;20362;-79
2022/06/06 08:18:45;;;;;;;;;;;;;;;25.71;41.48;98707.03;6251190;22;20002;-80
2022/06/06 08:21:11;;;;;;;;;;;;;;;26.35;40.91;98708.00;6251290;22;19964;-79
2022/06/06 08:23:37;;;;;;;;;;;;;;;26.51;39.05;98709.19;6225012;22;20006;-80
2022/06/06 08:26:03;;;;;;;;;;;;;;;26.17;39.48;98695.25;6250891;22;19919;-83
2022/06/06 08:28:30;;;;;;;;;;;;;;;25.76;40.63;98693.44;6200363;22;20095;-78
2022/06/06 08:30:57;;;;;;;;;;;;;;;25.98;40.30;98695.63;6250404;22;19973;-83
2022/06/06 08:33:23;;;;;;;;;;;;;;;26.48;40.64;98687.78;6245529;22;20284;-80
2022/06/06 08:36:04;;;;;;;;;;;;;;;27.24;39.66;98687.63;6278043;22;19919;-79
2022/06/06 08:38:47;;;;;;;;;;;;;;;27.91;36.41;98678.59;6279726;22;19919;-79
2022/06/06 08:41:49;;;;;;;;;;;;;;;28.20;36.46;98691.13;6275127;22;19919;-77
2022/06/06 08:44:20;;;;;;;;;;;;;;;27.35;37.97;98690.31;6188526;23;19973;-77
2022/06/06 08:46:49;;;;;;;;;;;;;;;27.20;38.45;98694.69;6209925;22;19919;-78
2022/06/06 08:52:35;;;;;;;;;;;;;;;26.94;38.12;98687.84;6276155;22;19919;-78
2022/06/06 08:55:07;;;;;;;;;;;;;;;27.27;38.29;98666.00;6277582;22;20346;-78
2022/06/06 08:57:49;;;;;;;;;;;;;;;27.60;37.91;98664.34;6249970;22;20373;-77
2022/06/06 09:00:24;;;;;;;;;;;;;;;27.91;37.80;98664.84;6250383;22;19923;-79
2022/06/06 09:03:08;;;;;;;;;;;;;;;27.73;37.55;98658.53;6224807;22;19923;-80
2022/06/06 09:05:40;;;;;;;;;;;;;;;27.01;38.26;98652.88;6249889;22;19919;-79
2022/06/06 09:08:07;;;;;;;;;;;;;;;26.03;40.20;98657.44;6275864;22;19942;-78
2022/06/06 09:10:51;;;;;;;;;;;;;;;25.80;41.29;98659.13;6275984;22;19926;-78
2022/06/06 09:13:29;;;;;;;;;;;;;;;26.31;40.65;98656.66;6301588;22;19962;-80
2022/06/06 09:16:13;;;;;;;;;;;;;;;26.89;40.04;98652.91;6276237;22;19926;-80
2022/06/06 09:18:39;;;;;;;;;;;;;;;26.99;40.01;98650.38;6275113;22;19919;-79
2022/06/06 09:21:04;;;;;;;;;;;;;;;27.58;39.89;98652.81;6275713;22;19919;-80
2022/06/06 09:24:00;;;;;;;;;;;;;;;28.13;38.45;98640.16;6250099;22;19926;-78
2022/06/06 09:26:50;;;;;;;;;;;;;;;28.41;37.75;98631.78;6275378;22;20017;-81
2022/06/06 09:29:31;;;;;;;;;;;;;;;27.87;37.62;98641.72;6277284;22;19926;-80
2022/06/06 09:32:15;;;;;;;;;;;;;;;27.89;38.19;98645.88;6277221;22;19965;-77
2022/06/06 09:34:44;;;;;;;;;;;;;;;28.15;38.06;98638.84;6199133;22;19927;-81
2022/06/06 09:37:13;;;;;;;;;;;;;;;28.36;37.57;98634.47;6249855;22;19923;-82
2022/06/06 09:39:47;;;;;;;;;;;;;;;28.47;36.66;98638.16;6249815;22;19927;-79
2022/06/06 09:42:19;;;;;;;;;;;;;;;27.23;37.91;98653.00;6224388;22;20002;-77
2022/06/06 09:44:57;;;;;;;;;;;;;;;26.96;39.09;98641.81;6250777;22;19919;-77
2022/06/06 09:47:41;;;;;;;;;;;;;;;27.27;38.84;98644.06;6249394;22;19927;-79
2022/06/06 09:50:07;;;;;;;;;;;;;;;26.99;38.49;98642.16;6199672;22;20014;-79
2022/06/06 09:52:39;;;;;;;;;;;;;;;27.41;39.25;98643.72;6249536;22;20362;-78
2022/06/06 10:01:10;;;;;;;;;;;;;;;28.87;36.23;98628.72;6224327;22;19961;-78
2022/06/06 10:03:36;;;;;;;;;;;;;;;28.85;35.26;98626.25;6200025;22;19979;-78
2022/06/06 10:06:17;;;;;;;;;;;;;;;27.91;35.74;98620.91;6224996;22;19927;-78
2022/06/06 10:09:02;;;;;;;;;;;;;;;27.19;36.91;98613.44;6275295;22;19923;-76
2022/06/06 10:11:43;;;;;;;;;;;;;;;26.53;38.54;98619.34;6224444;22;19998;-76
2022/06/06 10:14:11;;;;;;;;;;;;;;;25.87;40.12;98613.25;6249619;22;19955;-77
2022/06/06 10:16:41;;;;;;;;;;;;;;;25.92;40.19;98615.28;6249590;22;19919;-78
2022/06/06 10:19:27;;;;;;;;;;;;;;;26.20;39.87;98620.00;6224467;22;19919;-77
2022/06/06 10:21:52;;;;;;;;;;;;;;;26.39;38.74;98618.75;6224522;22;19937;-78
2022/06/06 10:24:36;;;;;;;;;;;;;;;26.50;38.44;98611.59;6224855;22;20005;-77
2022/06/06 10:27:07;;;;;;;;;;;;;;;26.58;38.34;98624.09;6199294;22;20339;-78
2022/06/06 10:32:45;;;;;;;;;;;;;;;26.39;39.18;98616.00;6259280;22;19923;-79
2022/06/06 10:35:26;;;;;;;;;;;;;;;26.22;39.46;98612.38;6274959;22;19919;-78
2022/06/06 10:37:58;;;;;;;;;;;;;;;25.76;41.62;98608.59;6301137;22;19993;-79
2022/06/06 10:40:44;;;;;;;;;;;;;;;24.97;43.51;98608.00;6276589;22;19923;-78
2022/06/06 10:43:15;;;;;;;;;;;;;;;24.70;44.22;98619.31;6275521;22;20355;-78
2022/06/06 10:45:52;;;;;;;;;;;;;;;24.44;46.80;98611.47;6251884;22;20358;-79
2022/06/06 10:48:20;;;;;;;;;;;;;;;24.54;47.04;98613.69;6275079;22;20260;-79
2022/06/06 10:54:06;;;;;;;;;;;;;;;24.64;47.47;98620.28;6275402;22;19927;-80
2022/06/06 10:56:41;;;;;;;;;;;;;;;24.51;47.80;98614.13;6275354;22;19997;-79
2022/06/06 10:59:25;;;;;;;;;;;;;;;24.55;48.87;98615.34;6277438;22;20358;-80
2022/06/06 11:02:06;;;;;;;;;;;;;;;24.49;49.23;98610.81;6249937;22;19946;-80
2022/06/06 11:04:50;;;;;;;;;;;;;;;24.20;50.28;98613.25;6249711;22;19927;-78
2022/06/06 11:07:35;;;;;;;;;;;;;;;24.20;50.53;98613.25;6275712;22;19920;-78
2022/06/06 11:10:04;;;;;;;;;;;;;;;23.95;50.62;98611.41;6278422;22;20224;-78
2022/06/06 11:12:29;;;;;;;;;;;;;;;23.94;50.74;98604.28;6249427;22;19934;-77
2022/06/06 11:14:58;;;;;;;;;;;;;;;23.82;50.97;98600.66;6274987;22;19919;-79
2022/06/06 11:17:42;;;;;;;;;;;;;;;23.78;50.83;98602.16;6249611;22;19920;-77
2022/06/06 11:20:23;;;;;;;;;;;;;;;23.67;51.08;98597.44;6249032;22;19919;-78
2022/06/06 11:22:57;;;;;;;;;;;;;;;23.52;51.33;98605.97;6274993;22;19950;-78
2022/06/06 11:25:23;;;;;;;;;;;;;;;23.43;51.62;98608.13;6223980;22;19919;-79
2022/06/06 11:28:19;;;;;;;;;;;;;;;23.33;52.29;98607.81;6249990;22;20340;-79
2022/06/06 11:31:11;;;;;;;;;;;;;;;23.41;52.01;98612.97;6239725;22;19923;-78
2022/06/06 11:33:59;;;;;;;;;;;;;;;23.43;51.79;98613.59;6217148;22;19923;-78
2022/06/06 11:36:47;;;;;;;;;;;;;;;23.33;52.20;98615.97;6277107;22;19919;-77
2022/06/06 11:39:25;;;;;;;;;;;;;;;23.46;51.86;98621.31;6278135;22;19943;-77
2022/06/06 11:41:58;;;;;;;;;;;;;;;23.51;52.17;98617.94;6276868;22;19920;-78
2022/06/06 11:44:44;;;;;;;;;;;;;;;23.33;52.22;98612.44;6277087;22;19996;-78
2022/06/06 11:47:29;;;;;;;;;;;;;;;23.45;52.04;98613.38;6250115;22;20001;-78
2022/06/06 11:50:14;;;;;;;;;;;;;;;23.68;51.76;98610.84;6276411;22;19996;-78
2022/06/06 11:52:50;;;;;;;;;;;;;;;23.82;51.72;98606.09;6302128;22;19930;-76
2022/06/06 11:55:16;;;;;;;;;;;;;;;23.66;52.44;98598.50;6251176;22;19919;-78
2022/06/06 11:57:48;;;;;;;;;;;;;;;23.47;52.34;98597.63;6276797;22;19926;-78
2022/06/06 12:00:37;;;;;;;;;;;;;;;23.42;52.34;98602.91;6277124;22;19946;-77
2022/06/06 12:03:22;;;;;;;;;;;;;;;23.59;52.24;98600.44;6208989;22;19919;-77
2022/06/06 12:06:07;;;;;;;;;;;;;;;23.70;52.03;98597.00;6251167;22;19926;-78
2022/06/06 12:08:44;;;;;;;;;;;;;;;23.96;51.49;98594.00;6276399;22;19919;-78
2022/06/06 12:11:30;;;;;;;;;;;;;;;23.76;51.75;98574.25;6251321;22;19927;-79
2022/06/06 12:14:05;;;;;;;;;;;;;;;23.65;51.80;98567.63;6276452;22;19992;-79
2022/06/06 12:16:49;;;;;;;;;;;;;;;23.57;52.07;98557.00;6277795;22;19969;-78
2022/06/06 12:19:28;;;;;;;;;;;;;;;23.58;52.02;98555.94;6251214;22;19919;-78
2022/06/06 12:22:11;;;;;;;;;;;;;;;23.39;52.74;98552.34;6277268;22;20301;-78
2022/06/06 12:24:55;;;;;;;;;;;;;;;23.29;53.54;98552.03;6276088;22;19919;-78
2022/06/06 12:27:21;;;;;;;;;;;;;;;23.49;53.34;98549.94;6276263;22;19926;-79
2022/06/06 12:29:56;;;;;;;;;;;;;;;23.70;52.81;98542.44;6225833;22;20348;-77
2022/06/06 12:32:38;;;;;;;;;;;;;;;23.56;52.79;98525.34;6280767;22;20346;-77
2022/06/06 12:35:04;;;;;;;;;;;;;;;23.75;52.64;98528.94;6230491;22;19986;-77
2022/06/06 12:37:35;;;;;;;;;;;;;;;23.81;52.34;98528.03;6281372;22;19980;-78
2022/06/06 12:40:21;;;;;;;;;;;;;;;23.96;51.05;98520.28;6255469;22;19919;-79
2022/06/06 12:42:56;;;;;;;;;;;;;;;23.68;52.14;98500.88;6308895;22;19919;-82
2022/06/06 12:45:37;;;;;;;;;;;;;;;23.63;51.70;98492.53;6230193;22;20273;-79
2022/06/06 12:48:26;;;;;;;;;;;;;;;23.91;51.33;98475.63;6255071;22;19997;-77
2022/06/06 12:51:10;;;;;;;;;;;;;;;24.60;48.78;98462.47;6255601;22;19926;-77
2022/06/06 12:53:49;;;;;;;;;;;;;;;24.83;47.86;98448.84;6231092;22;20226;-78
2022/06/06 12:56:20;;;;;;;;;;;;;;;24.40;48.92;98440.91;6254869;22;19922;-79
2022/06/06 12:58:58;;;;;;;;;;;;;;;24.07;50.01;98446.84;6280176;22;20341;-78
2022/06/06 13:01:49;;;;;;;;;;;;;;;23.82;50.60;98458.72;6256151;22;20019;-82
2022/06/06 13:04:21;;;;;;;;;;;;;;;23.78;50.31;98457.53;6255562;22;19919;-82
2022/06/06 13:06:59;;;;;;;;;;;;;;;23.75;50.95;98468.91;6229972;22;20429;-78
2022/06/06 13:09:48;;;;;;;;;;;;;;;23.81;50.64;98468.00;6230427;22;19969;-76
2022/06/06 13:12:34;;;;;;;;;;;;;;;23.28;51.40;98468.56;6307619;22;20080;-76
2022/06/06 13:15:00;;;;;;;;;;;;;;;23.13;51.75;98459.91;6270497;22;19923;-77
2022/06/06 13:17:26;;;;;;;;;;;;;;;23.06;52.14;98456.44;6255539;22;19919;-77
2022/06/06 13:19:59;;;;;;;;;;;;;;;23.05;52.22;98455.56;6229712;22;19919;-77
2022/06/06 13:22:59;;;;;;;;;;;;;;;23.04;52.22;98448.47;6255568;22;19968;-79
2022/06/06 13:25:37;;;;;;;;;;;;;;;22.96;53.30;98435.13;6206106;22;20025;-79
2022/06/06 13:28:25;;;;;;;;;;;;;;;22.97;53.55;98442.25;6228953;22;19954;-78
2022/06/06 13:30:59;;;;;;;;;;;;;;;22.88;54.03;98433.50;6229243;22;20019;-79
2022/06/06 13:33:34;;;;;;;;;;;;;;;22.67;54.98;98420.28;6274487;22;19923;-78
2022/06/06 13:36:26;;;;;;;;;;;;;;;22.74;55.19;98423.78;6249522;22;20001;-78
2022/06/06 13:39:00;;;;;;;;;;;;;;;23.27;53.79;98412.34;6275319;22;19919;-81
2022/06/06 13:41:50;;;;;;;;;;;;;;;23.44;52.88;98409.88;6248862;22;19942;-78
2022/06/06 13:44:34;;;;;;;;;;;;;;;23.66;52.56;98407.50;6222360;22;19928;-78
2022/06/06 13:47:00;;;;;;;;;;;;;;;23.50;52.63;98412.50;6246783;22;19930;-79
2022/06/06 13:49:41;;;;;;;;;;;;;;;23.08;53.95;98413.41;6245433;22;20001;-78
2022/06/06 13:52:41;;;;;;;;;;;;;;;22.73;54.84;98411.22;6221148;22;19923;-84